Time;durP1;ratioP1;P1;durP2;ratioP2;P2;SDS_P1;SDS_P2;PMS_P1;PMS_P2;Temp;Humidity;BMP_temperature;BMP_pressure;BME280_temperature;BME280_humidity;BME280_pressure;Samples;Min_cycle;Max_cycle;Signal;HPM_P1;HPM_P2
2023/10/28 00:00:54;;;;;;;7.53;2.45;;;10.20;99.90;;;;;;4998241;28;20026;-68
2023/10/28 00:03:20;;;;;;;7.40;2.97;;;10.20;99.90;;;;;;4998237;28;20124;-68
2023/10/28 00:05:46;;;;;;;7.57;2.53;;;10.10;99.90;;;;;;4998708;28;20026;-68
2023/10/28 00:08:12;;;;;;;4.80;2.80;;;10.10;99.90;;;;;;4998435;28;20077;-68
2023/10/28 00:10:37;;;;;;;4.15;2.40;;;10.10;99.90;;;;;;4998494;28;20146;-68
2023/10/28 00:13:07;;;;;;;6.95;2.60;;;10.20;99.90;;;;;;4997992;28;20030;-68
2023/10/28 00:15:32;;;;;;;7.05;2.80;;;10.20;99.90;;;;;;4998913;28;20026;-68
2023/10/28 00:17:58;;;;;;;9.77;2.95;;;10.30;99.90;;;;;;4998931;28;20034;-68
2023/10/28 00:20:23;;;;;;;7.32;3.92;;;10.30;99.90;;;;;;4997789;28;20081;-68
2023/10/28 00:22:53;;;;;;;5.05;2.85;;;10.40;99.90;;;;;;4997957;28;20030;-68
2023/10/28 00:25:22;;;;;;;7.30;4.40;;;10.40;99.90;;;;;;4998228;28;20029;-68
2023/10/28 00:27:48;;;;;;;9.10;3.28;;;10.40;99.90;;;;;;4998439;28;20057;-68
2023/10/28 00:30:14;;;;;;;9.20;3.60;;;10.40;99.90;;;;;;4997557;28;20041;-68
2023/10/28 00:32:41;;;;;;;14.02;3.65;;;10.40;99.90;;;;;;4997000;28;20029;-68
2023/10/28 00:35:08;;;;;;;7.40;4.30;;;10.40;99.90;;;;;;4997602;28;20042;-68
2023/10/28 00:37:37;;;;;;;8.00;4.88;;;10.50;99.90;;;;;;4997645;28;20128;-68
2023/10/28 00:40:06;;;;;;;6.85;2.92;;;10.40;99.90;;;;;;4997654;28;20134;-68
2023/10/28 00:42:36;;;;;;;6.63;3.13;;;10.30;99.90;;;;;;4997313;28;20022;-68
2023/10/28 00:45:08;;;;;;;8.73;3.28;;;10.30;99.90;;;;;;4997532;28;20024;-68
2023/10/28 00:47:44;;;;;;;11.02;3.45;;;10.40;99.90;;;;;;4997458;28;20037;-68
2023/10/28 00:50:12;;;;;;;7.13;3.13;;;10.40;99.90;;;;;;4997972;28;20089;-68
2023/10/28 00:52:39;;;;;;;9.35;3.40;;;10.30;99.90;;;;;;4997841;28;20061;-68
2023/10/28 00:55:09;;;;;;;8.68;3.60;;;10.30;99.90;;;;;;4997093;28;20038;-68
2023/10/28 00:57:35;;;;;;;7.10;3.80;;;10.30;99.90;;;;;;4996954;28;20089;-68
2023/10/28 01:00:01;;;;;;;15.05;5.15;;;10.40;99.90;;;;;;4997392;28;20018;-68
2023/10/28 01:02:27;;;;;;;11.93;4.30;;;10.40;99.90;;;;;;4997634;28;20033;-68
2023/10/28 01:04:53;;;;;;;11.27;4.63;;;10.40;99.90;;;;;;4997448;28;20026;-68
2023/10/28 01:07:19;;;;;;;8.80;4.15;;;10.40;99.90;;;;;;4997474;28;20122;-68
2023/10/28 01:09:47;;;;;;;11.13;4.43;;;10.40;99.90;;;;;;4996896;28;20121;-68
2023/10/28 01:12:15;;;;;;;6.35;3.58;;;10.40;99.90;;;;;;4996873;28;20034;-68
2023/10/28 01:14:42;;;;;;;11.10;5.07;;;10.50;99.90;;;;;;4997143;28;20076;-68
2023/10/28 01:17:08;;;;;;;9.30;3.90;;;10.50;99.90;;;;;;4997051;28;20073;-68
2023/10/28 01:19:34;;;;;;;8.45;3.58;;;10.50;99.90;;;;;;4997148;28;20018;-68
2023/10/28 01:22:01;;;;;;;8.63;3.92;;;10.50;99.90;;;;;;4996843;28;20019;-68
2023/10/28 01:24:28;;;;;;;7.72;3.10;;;10.50;99.90;;;;;;4997514;28;20027;-68
2023/10/28 01:26:54;;;;;;;7.97;4.50;;;10.50;99.90;;;;;;4996888;28;20062;-68
2023/10/28 01:29:19;;;;;;;6.95;3.95;;;10.50;99.90;;;;;;4996757;28;20084;-68
2023/10/28 01:31:45;;;;;;;7.97;3.90;;;10.60;99.90;;;;;;4997493;28;20030;-68
2023/10/28 01:34:10;;;;;;;12.13;3.25;;;10.60;99.90;;;;;;4996541;28;20121;-68
2023/10/28 01:36:36;;;;;;;8.73;3.22;;;10.70;99.90;;;;;;4996679;28;20064;-68
2023/10/28 01:39:02;;;;;;;7.55;3.60;;;10.70;99.90;;;;;;4997694;28;20018;-68
2023/10/28 01:41:27;;;;;;;10.13;4.03;;;10.80;99.90;;;;;;4996805;28;20026;-68
2023/10/28 01:43:53;;;;;;;10.07;3.33;;;10.80;99.90;;;;;;4997823;28;20018;-68
2023/10/28 01:46:19;;;;;;;7.90;3.45;;;10.80;99.90;;;;;;5000601;28;20085;-68
2023/10/28 01:48:45;;;;;;;6.63;2.58;;;10.90;99.90;;;;;;5001622;28;20057;-68
2023/10/28 01:51:10;;;;;;;8.23;3.47;;;11.00;99.90;;;;;;5000986;28;20037;-68
2023/10/28 01:53:36;;;;;;;6.07;2.97;;;11.00;99.90;;;;;;5000488;28;20034;-68
2023/10/28 01:56:02;;;;;;;8.30;2.83;;;11.10;99.90;;;;;;5001438;28;20041;-69
2023/10/28 01:58:28;;;;;;;6.95;2.70;;;11.10;99.90;;;;;;5000715;28;20019;-69
2023/10/28 02:00:54;;;;;;;10.27;2.75;;;11.10;99.90;;;;;;5001047;28;20034;-68
2023/10/28 02:03:20;;;;;;;8.20;3.00;;;11.10;99.90;;;;;;5000267;28;20033;-68
2023/10/28 02:05:47;;;;;;;7.78;2.83;;;11.10;99.90;;;;;;5000211;28;20023;-68
2023/10/28 02:08:12;;;;;;;8.70;3.20;;;11.20;99.90;;;;;;5000165;28;20029;-68
2023/10/28 02:10:38;;;;;;;11.75;4.93;;;11.20;99.90;;;;;;5001086;28;20022;-68
2023/10/28 02:13:09;;;;;;;5.30;2.70;;;11.20;99.90;;;;;;5000221;28;20146;-68
2023/10/28 02:15:35;;;;;;;6.05;2.88;;;11.20;99.90;;;;;;5000067;28;20073;-68
2023/10/28 02:18:00;;;;;;;7.20;3.30;;;11.30;99.90;;;;;;5000262;28;20030;-68
2023/10/28 02:20:28;;;;;;;6.53;3.00;;;11.30;99.90;;;;;;5001156;28;20029;-68
2023/10/28 02:22:53;;;;;;;7.38;3.55;;;11.30;99.90;;;;;;5000257;28;20023;-68
2023/10/28 02:25:19;;;;;;;5.75;3.55;;;11.30;99.90;;;;;;5000113;28;20025;-68
2023/10/28 02:27:44;;;;;;;8.50;3.60;;;11.40;99.90;;;;;;4999792;28;20022;-68
2023/10/28 02:30:11;;;;;;;6.32;3.90;;;11.40;99.90;;;;;;5000153;28;20023;-68
2023/10/28 02:32:37;;;;;;;9.15;3.60;;;11.50;99.90;;;;;;4999868;28;20113;-68
2023/10/28 02:35:03;;;;;;;6.45;3.70;;;11.50;99.90;;;;;;4999945;28;20143;-68
2023/10/28 02:37:29;;;;;;;12.05;4.43;;;11.50;99.90;;;;;;5000356;28;20030;-68
2023/10/28 02:39:55;;;;;;;10.20;4.85;;;11.60;99.90;;;;;;4999817;28;20046;-68
2023/10/28 02:42:24;;;;;;;8.25;4.45;;;11.70;99.90;;;;;;4999599;28;20116;-68
2023/10/28 02:44:50;;;;;;;8.07;5.03;;;11.80;99.90;;;;;;4999942;28;20023;-68
2023/10/28 02:47:16;;;;;;;15.40;5.93;;;11.80;99.90;;;;;;4999496;28;20077;-68
2023/10/28 02:49:42;;;;;;;8.80;5.40;;;11.80;99.90;;;;;;5000589;28;20037;-68
2023/10/28 02:52:08;;;;;;;8.60;5.50;;;11.90;99.90;;;;;;4999730;28;20026;-68
2023/10/28 02:54:36;;;;;;;9.70;4.38;;;11.90;99.90;;;;;;4998622;28;20042;-68
2023/10/28 02:57:03;;;;;;;6.45;4.32;;;12.00;99.90;;;;;;4999370;28;20073;-68
2023/10/28 02:59:28;;;;;;;7.78;5.43;;;12.00;99.90;;;;;;4999580;28;20034;-69
2023/10/28 03:01:54;;;;;;;12.70;5.20;;;11.90;99.90;;;;;;4999574;28;20054;-68
2023/10/28 03:04:20;;;;;;;9.25;5.25;;;11.80;99.90;;;;;;4999546;28;20019;-68
2023/10/28 03:06:46;;;;;;;8.35;3.95;;;11.80;99.90;;;;;;4999479;28;20048;-68
2023/10/28 03:09:12;;;;;;;9.40;4.07;;;11.80;99.90;;;;;;4999982;28;20029;-69
2023/10/28 03:11:37;;;;;;;7.10;3.92;;;11.80;99.90;;;;;;4999386;28;20050;-69
2023/10/28 03:14:04;;;;;;;5.93;3.47;;;11.90;99.90;;;;;;4999043;28;20049;-68
2023/10/28 03:16:30;;;;;;;11.48;3.42;;;11.90;99.90;;;;;;4999759;28;20084;-68
2023/10/28 03:18:56;;;;;;;6.13;3.30;;;11.80;99.90;;;;;;4999138;28;20019;-68
2023/10/28 03:21:21;;;;;;;4.75;3.08;;;11.80;99.90;;;;;;4999274;28;20022;-68
2023/10/28 03:23:47;;;;;;;5.28;2.38;;;11.90;99.90;;;;;;4999074;28;20068;-68
2023/10/28 03:26:12;;;;;;;2.13;1.25;;;12.00;99.90;;;;;;4999040;28;20031;-68
2023/10/28 03:28:38;;;;;;;3.63;1.30;;;12.10;99.90;;;;;;4999324;28;20026;-68
2023/10/28 03:31:11;;;;;;;5.18;1.00;;;12.00;99.90;;;;;;4999716;28;20038;-68
2023/10/28 03:33:37;;;;;;;3.58;0.68;;;12.10;99.90;;;;;;4999138;28;20018;-68
2023/10/28 03:36:04;;;;;;;1.55;0.90;;;12.10;99.90;;;;;;4998916;28;20026;-68
2023/10/28 03:38:30;;;;;;;1.52;0.50;;;12.00;99.90;;;;;;4999463;28;20022;-68
2023/10/28 03:40:56;;;;;;;0.80;0.60;;;11.90;99.90;;;;;;4998882;28;20025;-68
2023/10/28 03:43:22;;;;;;;1.85;0.60;;;11.80;99.90;;;;;;4999472;28;20105;-68
2023/10/28 03:45:48;;;;;;;1.23;0.40;;;11.80;99.90;;;;;;4998562;28;20026;-68
2023/10/28 03:48:14;;;;;;;0.40;0.40;;;11.80;99.90;;;;;;4998304;28;20030;-68
2023/10/28 03:50:40;;;;;;;0.40;0.40;;;11.80;99.90;;;;;;4998509;28;20025;-68
2023/10/28 03:53:06;;;;;;;0.30;0.15;;;11.80;99.90;;;;;;4999473;28;20105;-68
2023/10/28 03:55:32;;;;;;;0.65;0.20;;;11.80;99.90;;;;;;4998151;28;20073;-68
2023/10/28 03:57:58;;;;;;;1.02;0.47;;;11.70;99.90;;;;;;4998426;28;20022;-68
2023/10/28 04:00:23;;;;;;;0.82;0.20;;;11.60;99.90;;;;;;4998316;28;20026;-68
2023/10/28 04:02:50;;;;;;;0.30;0.20;;;11.60;99.90;;;;;;4999060;28;20054;-68
2023/10/28 04:05:16;;;;;;;1.85;0.38;;;11.60;99.90;;;;;;4998798;28;20040;-68
2023/10/28 04:07:41;;;;;;;0.82;0.50;;;11.60;99.90;;;;;;4997896;28;20030;-68
2023/10/28 04:10:07;;;;;;;1.27;0.30;;;11.60;99.90;;;;;;4998558;28;20026;-68
2023/10/28 04:12:33;;;;;;;0.22;0.20;;;11.70;99.90;;;;;;4998197;28;20033;-68
2023/10/28 04:14:59;;;;;;;0.25;0.20;;;11.80;99.90;;;;;;4998218;28;20054;-68
2023/10/28 04:17:25;;;;;;;0.93;0.30;;;11.80;99.90;;;;;;4998035;28;20046;-68
2023/10/28 04:19:51;;;;;;;1.27;0.30;;;11.80;99.90;;;;;;4998221;28;20023;-68
2023/10/28 04:22:17;;;;;;;1.48;0.30;;;11.80;99.90;;;;;;4997911;28;20030;-68
2023/10/28 04:24:42;;;;;;;0.70;0.20;;;11.80;99.90;;;;;;4997996;28;20115;-68
2023/10/28 04:27:08;;;;;;;2.20;0.30;;;11.80;99.90;;;;;;4997587;28;20039;-68
2023/10/28 04:29:33;;;;;;;0.30;0.20;;;11.80;99.90;;;;;;4997938;28;20038;-68
2023/10/28 04:31:59;;;;;;;0.95;0.40;;;11.80;99.90;;;;;;4997619;28;20052;-68
2023/10/28 04:34:24;;;;;;;0.10;0.10;;;11.80;99.90;;;;;;4998244;28;20023;-68
2023/10/28 04:36:50;;;;;;;0.20;0.20;;;11.70;99.90;;;;;;4997740;28;20026;-68
2023/10/28 04:39:15;;;;;;;0.20;0.20;;;11.60;99.90;;;;;;4998596;28;20027;-68
2023/10/28 04:41:41;;;;;;;0.30;0.20;;;11.50;99.90;;;;;;4997754;28;20019;-68
2023/10/28 04:44:06;;;;;;;0.38;0.22;;;11.40;99.90;;;;;;4997671;28;20018;-68
2023/10/28 04:46:32;;;;;;;0.10;0.10;;;11.40;99.90;;;;;;4997350;28;20022;-68
2023/10/28 04:48:58;;;;;;;0.28;0.20;;;11.40;99.90;;;;;;4997368;28;20026;-68
2023/10/28 04:51:24;;;;;;;0.73;0.73;;;11.30;99.90;;;;;;4997113;28;20037;-68
2023/10/28 04:53:50;;;;;;;1.55;0.30;;;11.30;99.90;;;;;;5020418;23;20038;-64
2023/10/28 04:56:18;;;;;;;0.57;0.30;;;11.40;99.90;;;;;;4994266;28;20046;-64
2023/10/28 04:58:43;;;;;;;3.83;0.25;;;11.40;99.90;;;;;;4978518;28;20030;-64
2023/10/28 05:01:09;;;;;;;1.15;0.30;;;11.40;99.90;;;;;;4977813;28;20022;-64
2023/10/28 05:03:34;;;;;;;0.73;0.20;;;11.50;99.90;;;;;;4993905;28;20022;-64
2023/10/28 05:06:00;;;;;;;0.88;0.20;;;11.50;99.90;;;;;;4978734;28;20026;-64
2023/10/28 05:08:27;;;;;;;1.00;0.30;;;11.40;99.90;;;;;;4993863;28;20027;-64
2023/10/28 05:10:53;;;;;;;0.88;0.30;;;11.30;99.90;;;;;;4978663;28;20033;-64
2023/10/28 05:13:18;;;;;;;1.17;0.30;;;11.30;99.90;;;;;;4977906;28;20026;-64
2023/10/28 05:15:44;;;;;;;1.67;0.88;;;11.30;99.90;;;;;;4977334;28;20081;-64
2023/10/28 05:18:09;;;;;;;3.13;0.73;;;11.30;99.90;;;;;;4993501;28;20114;-64
2023/10/28 05:20:35;;;;;;;2.35;0.35;;;11.30;99.90;;;;;;4977732;28;20098;-64
2023/10/28 05:23:01;;;;;;;0.85;0.70;;;11.20;99.90;;;;;;4977349;28;20050;-64
2023/10/28 05:25:26;;;;;;;1.35;0.35;;;11.20;99.90;;;;;;4978480;28;20027;-64
2023/10/28 05:27:52;;;;;;;5.07;0.43;;;11.20;99.90;;;;;;4977415;28;20026;-64
2023/10/28 05:30:17;;;;;;;0.52;0.50;;;11.20;99.90;;;;;;4977658;28;20038;-65
2023/10/28 05:32:43;;;;;;;2.00;0.40;;;11.20;99.90;;;;;;4977196;28;20035;-64
2023/10/28 05:35:10;;;;;;;1.98;0.40;;;11.30;99.90;;;;;;4977200;28;20023;-64
2023/10/28 05:37:37;;;;;;;3.78;0.57;;;11.30;99.90;;;;;;4993774;28;20033;-64
2023/10/28 05:40:02;;;;;;;1.60;0.20;;;11.30;99.90;;;;;;4977440;28;20026;-64
2023/10/28 05:42:28;;;;;;;3.30;0.55;;;11.30;99.90;;;;;;4977078;28;20026;-64
2023/10/28 05:44:54;;;;;;;0.30;0.30;;;11.20;99.90;;;;;;4977998;28;20031;-64
2023/10/28 05:47:19;;;;;;;4.60;0.73;;;11.20;99.90;;;;;;4978150;28;20057;-64
2023/10/28 05:49:45;;;;;;;1.05;0.50;;;11.30;99.90;;;;;;4977267;28;20022;-64
2023/10/28 05:52:12;;;;;;;11.90;0.57;;;11.30;99.90;;;;;;4977186;28;20082;-64
2023/10/28 05:54:38;;;;;;;1.60;0.88;;;11.30;99.90;;;;;;4976882;28;20031;-64
2023/10/28 05:57:03;;;;;;;3.75;0.70;;;11.20;99.90;;;;;;4977581;28;20055;-64
2023/10/28 05:59:29;;;;;;;4.35;0.73;;;11.30;99.90;;;;;;4977430;28;20085;-64
2023/10/28 06:01:54;;;;;;;0.77;0.45;;;11.10;99.90;;;;;;4977374;28;20078;-64
2023/10/28 06:04:21;;;;;;;5.82;0.93;;;11.10;99.90;;;;;;4976906;28;20023;-64
2023/10/28 06:06:48;;;;;;;2.45;0.57;;;11.10;99.90;;;;;;4976955;28;20089;-64
2023/10/28 06:09:15;;;;;;;2.65;1.08;;;11.20;99.90;;;;;;4976975;28;20027;-64
2023/10/28 06:11:40;;;;;;;7.85;1.58;;;11.30;99.90;;;;;;4977151;28;20033;-65
2023/10/28 06:14:07;;;;;;;2.95;0.70;;;11.40;99.90;;;;;;4976895;28;20027;-64
2023/10/28 06:16:34;;;;;;;1.08;0.98;;;11.40;99.90;;;;;;4976859;28;20035;-64
2023/10/28 06:19:00;;;;;;;2.50;0.45;;;11.40;99.90;;;;;;4978015;28;20106;-64
2023/10/28 06:21:26;;;;;;;2.55;0.50;;;11.30;99.90;;;;;;4976923;28;20108;-64
2023/10/28 06:23:51;;;;;;;6.13;0.70;;;11.00;99.90;;;;;;4976961;28;20023;-64
2023/10/28 06:26:18;;;;;;;3.00;1.05;;;10.90;99.90;;;;;;4976798;28;20114;-64
2023/10/28 06:28:45;;;;;;;4.78;0.77;;;10.70;99.90;;;;;;4976659;28;20033;-64
2023/10/28 06:31:10;;;;;;;2.58;0.88;;;10.60;99.90;;;;;;4979739;28;20027;-64
2023/10/28 06:33:36;;;;;;;2.22;0.60;;;10.60;99.90;;;;;;4980446;28;20073;-64
2023/10/28 06:36:01;;;;;;;3.10;1.13;;;10.60;99.90;;;;;;4996320;28;20027;-64
2023/10/28 06:38:29;;;;;;;2.42;0.73;;;10.50;99.90;;;;;;4997322;28;20023;-64
2023/10/28 06:40:54;;;;;;;1.98;0.80;;;10.50;99.90;;;;;;4981285;28;20023;-64
2023/10/28 06:43:22;;;;;;;5.15;0.82;;;10.50;99.90;;;;;;4980428;28;20038;-64
2023/10/28 06:45:47;;;;;;;2.70;0.63;;;10.50;99.90;;;;;;4980267;28;20113;-64
2023/10/28 06:48:13;;;;;;;2.60;0.60;;;10.50;99.90;;;;;;4981275;28;20158;-64
2023/10/28 06:50:38;;;;;;;1.02;0.73;;;10.40;99.90;;;;;;4980175;28;20105;-64
2023/10/28 06:53:04;;;;;;;5.35;1.13;;;10.60;99.90;;;;;;4981024;28;20034;-64
2023/10/28 06:55:30;;;;;;;7.30;1.13;;;10.50;99.90;;;;;;4986752;28;20034;-64
2023/10/28 06:57:56;;;;;;;4.28;0.88;;;10.60;99.90;;;;;;4999574;28;20038;-64
2023/10/28 07:00:27;;;;;;;3.08;1.20;;;10.60;99.90;;;;;;5000413;28;20030;-64
2023/10/28 07:02:53;;;;;;;1.10;0.75;;;10.50;99.90;;;;;;5000165;28;20014;-64
2023/10/28 07:05:19;;;;;;;1.42;0.80;;;10.70;99.90;;;;;;4999669;28;20109;-64
2023/10/28 07:07:44;;;;;;;3.70;1.17;;;10.90;99.90;;;;;;4999176;28;20126;-64
2023/10/28 07:10:14;;;;;;;1.75;0.95;;;11.00;99.90;;;;;;5000147;28;20050;-64
2023/10/28 07:12:41;;;;;;;3.10;1.08;;;11.00;99.90;;;;;;4999045;28;20030;-64
2023/10/28 07:15:09;;;;;;;1.98;1.00;;;11.10;99.90;;;;;;4999958;28;20030;-64
2023/10/28 07:17:35;;;;;;;2.80;0.90;;;11.00;99.90;;;;;;4999203;28;20113;-64
2023/10/28 07:20:01;;;;;;;2.25;1.00;;;11.20;99.90;;;;;;4999779;28;20061;-64
2023/10/28 07:22:26;;;;;;;3.53;2.03;;;11.20;99.90;;;;;;5000190;28;20095;-64
2023/10/28 07:24:54;;;;;;;4.82;1.20;;;11.20;99.90;;;;;;4999715;28;20049;-64
2023/10/28 07:27:20;;;;;;;4.75;1.25;;;11.20;99.90;;;;;;4999922;28;20054;-64
2023/10/28 07:29:48;;;;;;;3.03;1.40;;;11.40;99.90;;;;;;4998702;28;20030;-63
2023/10/28 07:32:13;;;;;;;2.42;1.10;;;11.30;99.90;;;;;;4998660;28;20030;-63
2023/10/28 07:34:40;;;;;;;2.17;1.40;;;11.30;99.90;;;;;;4998969;28;20023;-63
2023/10/28 07:37:06;;;;;;;7.65;1.98;;;11.30;99.90;;;;;;4998838;28;20030;-63
2023/10/28 07:39:32;;;;;;;4.53;1.83;;;11.40;99.90;;;;;;4999589;28;20038;-63
2023/10/28 07:41:58;;;;;;;4.10;1.83;;;11.60;99.90;;;;;;4998820;28;20029;-63
2023/10/28 07:44:24;;;;;;;6.35;1.70;;;11.60;99.90;;;;;;4998429;28;20030;-64
2023/10/28 07:46:49;;;;;;;4.70;1.98;;;11.60;99.90;;;;;;4998405;28;20052;-64
2023/10/28 07:49:15;;;;;;;7.32;2.22;;;11.80;99.90;;;;;;4999249;28;20121;-65
2023/10/28 07:51:41;;;;;;;2.78;1.92;;;11.50;99.90;;;;;;4998883;28;20033;-66
2023/10/28 07:54:07;;;;;;;6.88;2.47;;;11.60;99.90;;;;;;4999180;28;20069;-66
2023/10/28 07:56:33;;;;;;;4.05;2.25;;;11.50;99.90;;;;;;4998776;28;20029;-66
2023/10/28 07:59:02;;;;;;;5.90;2.63;;;11.40;99.90;;;;;;4998369;28;20022;-65
2023/10/28 08:01:29;;;;;;;5.38;2.85;;;11.40;99.90;;;;;;4998216;28;20069;-66
2023/10/28 08:03:55;;;;;;;6.47;2.97;;;11.30;99.90;;;;;;4999113;28;20097;-66
2023/10/28 08:06:22;;;;;;;7.55;2.97;;;11.30;99.90;;;;;;4998091;28;20022;-65
2023/10/28 08:08:47;;;;;;;7.10;2.88;;;11.30;99.90;;;;;;4998017;28;20084;-65
2023/10/28 08:11:13;;;;;;;5.05;2.80;;;11.50;99.90;;;;;;4998080;28;20117;-66
2023/10/28 08:13:40;;;;;;;5.63;2.28;;;11.60;99.90;;;;;;4998826;28;20027;-66
2023/10/28 08:16:12;;;;;;;3.10;2.20;;;11.60;99.90;;;;;;4997818;28;20033;-66
2023/10/28 08:18:41;;;;;;;3.95;2.40;;;11.40;99.90;;;;;;4997863;28;20019;-66
2023/10/28 08:21:07;;;;;;;4.00;2.20;;;11.50;99.90;;;;;;4998062;28;20109;-65
2023/10/28 08:23:33;;;;;;;4.22;2.20;;;11.60;99.90;;;;;;4997738;28;20038;-65
2023/10/28 08:25:59;;;;;;;7.65;2.40;;;11.70;99.90;;;;;;4997622;28;20019;-66
2023/10/28 08:28:26;;;;;;;4.57;2.40;;;11.80;99.90;;;;;;4998131;28;20018;-66
2023/10/28 08:30:52;;;;;;;3.67;2.03;;;11.60;99.90;;;;;;4998599;28;20026;-66
2023/10/28 08:33:20;;;;;;;4.47;1.52;;;11.60;99.90;;;;;;4998454;28;20026;-66
2023/10/28 08:35:50;;;;;;;3.78;2.05;;;11.70;99.90;;;;;;4998381;28;20050;-65
2023/10/28 08:38:16;;;;;;;1.98;1.58;;;11.80;99.90;;;;;;4997758;28;20052;-66
2023/10/28 08:40:46;;;;;;;5.68;1.05;;;11.90;99.90;;;;;;4997738;28;20101;-65
2023/10/28 08:43:14;;;;;;;3.97;1.30;;;12.00;99.90;;;;;;4998227;28;20029;-65
2023/10/28 08:45:41;;;;;;;7.18;1.00;;;11.90;99.90;;;;;;4998139;28;20018;-65
2023/10/28 08:48:09;;;;;;;7.07;1.30;;;12.00;99.90;;;;;;4996981;28;20034;-65
2023/10/28 08:50:34;;;;;;;3.20;1.10;;;12.00;99.90;;;;;;4997209;28;20050;-65
2023/10/28 08:53:03;;;;;;;4.80;1.30;;;12.00;99.90;;;;;;4997778;28;20030;-65
2023/10/28 08:55:30;;;;;;;5.18;1.00;;;12.10;99.90;;;;;;4996936;28;20101;-65
2023/10/28 08:57:56;;;;;;;3.40;1.10;;;12.00;99.90;;;;;;4997063;28;20026;-63
2023/10/28 09:00:23;;;;;;;2.05;1.10;;;12.00;99.90;;;;;;4997640;28;20026;-63
2023/10/28 09:02:50;;;;;;;1.17;0.98;;;12.20;99.90;;;;;;4997038;28;20022;-64
2023/10/28 09:05:16;;;;;;;2.45;1.00;;;12.20;99.90;;;;;;4997000;28;20105;-64
2023/10/28 09:07:46;;;;;;;1.02;0.80;;;12.30;99.90;;;;;;4997348;28;20058;-64
2023/10/28 09:10:12;;;;;;;3.03;1.20;;;12.20;99.90;;;;;;4997976;28;20026;-63
2023/10/28 09:12:39;;;;;;;3.03;0.90;;;12.30;99.90;;;;;;4997860;28;20019;-64
2023/10/28 09:15:05;;;;;;;1.50;0.85;;;12.30;99.90;;;;;;4997724;28;20031;-64
2023/10/28 09:17:31;;;;;;;5.53;1.42;;;12.30;99.90;;;;;;4996784;28;20142;-64
2023/10/28 09:19:57;;;;;;;3.80;1.42;;;12.30;99.90;;;;;;4996905;28;20027;-64
2023/10/28 09:22:26;;;;;;;5.85;1.20;;;12.30;99.90;;;;;;4996977;28;20042;-64
2023/10/28 09:24:53;;;;;;;4.82;1.23;;;12.30;99.90;;;;;;4996846;28;20105;-64
2023/10/28 09:27:19;;;;;;;6.90;1.13;;;12.20;99.90;;;;;;4996716;28;20038;-64
2023/10/28 09:29:45;;;;;;;2.00;1.20;;;12.30;99.90;;;;;;4997695;28;20114;-64
2023/10/28 09:32:10;;;;;;;7.20;1.98;;;12.10;99.90;;;;;;4997000;28;20084;-64
2023/10/28 09:34:40;;;;;;;9.07;1.73;;;12.00;99.90;;;;;;4997412;28;20026;-65
2023/10/28 09:37:07;;;;;;;1.95;1.20;;;12.10;99.90;;;;;;4997400;28;20049;-67
2023/10/28 09:39:33;;;;;;;3.03;1.45;;;12.10;99.90;;;;;;4996676;28;20084;-67
2023/10/28 09:42:00;;;;;;;4.00;1.70;;;12.00;99.90;;;;;;4996991;28;20029;-66
2023/10/28 09:44:26;;;;;;;4.65;1.33;;;12.10;99.90;;;;;;4996587;28;20066;-66
2023/10/28 09:47:00;;;;;;;2.38;1.38;;;12.00;99.90;;;;;;4997429;28;20066;-66
2023/10/28 09:49:29;;;;;;;6.45;1.48;;;11.90;99.90;;;;;;4997492;28;20034;-66
2023/10/28 09:52:00;;;;;;;4.47;1.55;;;12.00;99.90;;;;;;4997683;28;20022;-66
2023/10/28 09:54:29;;;;;;;6.93;1.35;;;12.00;99.90;;;;;;4996603;28;20038;-66
2023/10/28 09:57:00;;;;;;;4.97;1.05;;;12.10;99.90;;;;;;4996416;28;20060;-66
2023/10/28 09:59:27;;;;;;;7.55;1.38;;;12.10;99.90;;;;;;4996597;28;20025;-66
2023/10/28 10:02:22;;;;;;;2.80;1.17;;;12.20;99.90;;;;;;4997329;28;20018;-66
2023/10/28 10:04:53;;;;;;;1.77;1.15;;;12.10;99.90;;;;;;4997408;28;20081;-65
2023/10/28 10:07:19;;;;;;;2.95;1.40;;;12.00;99.90;;;;;;5000444;28;20117;-65
2023/10/28 10:09:48;;;;;;;4.07;1.33;;;12.10;99.90;;;;;;5000214;28;20057;-65
2023/10/28 10:12:15;;;;;;;3.67;1.20;;;12.20;99.90;;;;;;5000324;28;20030;-65
2023/10/28 10:14:47;;;;;;;2.97;1.30;;;12.20;99.90;;;;;;5000117;28;20030;-65
2023/10/28 10:17:31;;;;;;;2.90;1.10;;;12.20;99.90;;;;;;5000646;28;20026;-65
2023/10/28 10:20:00;;;;;;;6.00;1.25;;;12.20;99.90;;;;;;5000864;28;20026;-65
2023/10/28 10:22:29;;;;;;;1.85;0.95;;;12.20;99.90;;;;;;4999837;28;20054;-66
2023/10/28 10:24:55;;;;;;;1.75;1.10;;;12.30;99.90;;;;;;5000780;28;20086;-65
2023/10/28 10:27:44;;;;;;;1.65;0.65;;;12.40;99.90;;;;;;5001077;28;20061;-65
2023/10/28 10:30:10;;;;;;;3.08;0.80;;;12.50;99.90;;;;;;5000847;28;20022;-65
2023/10/28 10:32:55;;;;;;;1.27;0.73;;;12.60;99.90;;;;;;5000740;28;20094;-65
2023/10/28 10:35:30;;;;;;;6.63;1.20;;;12.70;99.90;;;;;;4999870;28;20116;-66
2023/10/28 10:38:11;;;;;;;1.25;0.80;;;12.70;99.90;;;;;;5001050;28;20054;-65
2023/10/28 10:40:51;;;;;;;8.20;1.40;;;12.80;99.90;;;;;;5000834;28;20026;-65
2023/10/28 10:43:21;;;;;;;5.28;1.42;;;12.80;99.90;;;;;;4999795;28;20316;-65
2023/10/28 10:45:51;;;;;;;3.38;1.63;;;12.90;99.90;;;;;;4999483;28;20022;-65
2023/10/28 10:48:17;;;;;;;3.90;1.10;;;13.00;99.90;;;;;;4999834;28;20066;-65
2023/10/28 10:50:43;;;;;;;1.88;0.82;;;13.10;99.90;;;;;;4999476;28;20030;-65
2023/10/28 10:53:09;;;;;;;8.18;1.50;;;13.10;99.90;;;;;;4999277;28;20054;-66
2023/10/28 10:55:35;;;;;;;6.28;1.33;;;13.20;99.90;;;;;;5047112;23;20045;-71
2023/10/28 10:58:01;;;;;;;1.23;0.90;;;13.40;99.90;;;;;;5039028;28;20036;-71
2023/10/28 11:00:27;;;;;;;3.08;1.13;;;13.40;99.90;;;;;;5038663;28;20059;-71
2023/10/28 11:02:57;;;;;;;2.67;0.90;;;13.30;99.90;;;;;;5039643;28;20025;-71
2023/10/28 11:05:23;;;;;;;2.83;0.80;;;13.30;99.90;;;;;;5028102;28;20056;-71
2023/10/28 11:07:48;;;;;;;8.18;1.55;;;13.40;99.90;;;;;;5019063;28;20030;-71
2023/10/28 11:10:14;;;;;;;5.35;0.95;;;13.40;99.90;;;;;;5018844;28;20026;-71
2023/10/28 11:12:41;;;;;;;3.35;1.08;;;13.40;99.90;;;;;;5019295;28;20022;-71
2023/10/28 11:15:08;;;;;;;3.85;0.98;;;13.30;99.90;;;;;;5018227;28;20036;-71
2023/10/28 11:17:34;;;;;;;3.95;1.27;;;13.20;99.90;;;;;;5019475;28;20049;-71
2023/10/28 11:20:02;;;;;;;1.73;0.82;;;13.20;99.90;;;;;;5018571;28;20022;-71
2023/10/28 11:22:28;;;;;;;3.47;1.00;;;13.30;99.90;;;;;;5019083;28;20041;-72
2023/10/28 11:24:58;;;;;;;2.60;1.10;;;13.20;99.90;;;;;;5019580;28;20022;-72
2023/10/28 11:27:24;;;;;;;5.10;1.30;;;13.10;99.90;;;;;;5019335;28;20033;-71
2023/10/28 11:29:51;;;;;;;4.25;1.10;;;13.10;99.90;;;;;;5019361;28;20026;-71
2023/10/28 11:32:19;;;;;;;7.70;1.00;;;13.20;99.90;;;;;;5018575;28;20029;-71
2023/10/28 11:34:45;;;;;;;3.78;0.98;;;13.40;99.90;;;;;;5019003;28;20080;-71
2023/10/28 11:37:11;;;;;;;3.22;1.20;;;13.60;99.90;;;;;;5018731;28;20030;-70
2023/10/28 11:39:38;;;;;;;6.57;1.20;;;13.70;99.90;;;;;;5019276;28;20033;-71
2023/10/28 11:42:10;;;;;;;5.75;1.30;;;13.70;99.90;;;;;;5019245;28;20045;-70
2023/10/28 11:44:36;;;;;;;6.65;1.30;;;13.80;99.90;;;;;;5018186;28;20025;-70
2023/10/28 11:47:02;;;;;;;4.80;1.02;;;13.90;99.90;;;;;;5019009;28;20026;-70
2023/10/28 11:49:28;;;;;;;3.67;1.10;;;14.10;99.90;;;;;;5018115;28;20104;-72
2023/10/28 11:51:53;;;;;;;4.60;0.82;;;14.10;99.90;;;;;;5018071;28;20057;-70
2023/10/28 11:54:19;;;;;;;5.78;1.27;;;14.20;99.90;;;;;;5018718;28;20080;-70
2023/10/28 11:56:44;;;;;;;4.07;0.90;;;14.10;99.90;;;;;;5018996;28;20128;-70
2023/10/28 11:59:11;;;;;;;5.80;1.10;;;14.10;99.90;;;;;;5018911;28;20077;-71
2023/10/28 12:01:36;;;;;;;5.97;1.17;;;14.10;99.90;;;;;;5019040;28;20088;-70
2023/10/28 12:04:03;;;;;;;2.22;0.90;;;14.10;99.90;;;;;;5017953;28;20056;-70
2023/10/28 12:06:30;;;;;;;8.80;1.58;;;14.10;99.90;;;;;;5019044;28;20148;-71
2023/10/28 12:08:57;;;;;;;2.60;1.00;;;14.20;99.90;;;;;;5018009;28;20034;-70
2023/10/28 12:11:23;;;;;;;2.88;0.93;;;14.20;99.90;;;;;;5018891;28;20021;-70
2023/10/28 12:13:48;;;;;;;2.85;0.75;;;14.20;99.90;;;;;;5018535;28;20048;-70
2023/10/28 12:16:16;;;;;;;8.95;1.30;;;14.20;99.90;;;;;;5017337;28;20025;-70
2023/10/28 12:18:41;;;;;;;3.83;0.90;;;14.10;99.90;;;;;;5017448;28;20018;-71
2023/10/28 12:21:08;;;;;;;14.98;1.20;;;14.00;99.90;;;;;;5018796;28;20026;-71
2023/10/28 12:23:33;;;;;;;2.03;0.70;;;14.00;99.90;;;;;;5018359;28;20014;-70
2023/10/28 12:25:59;;;;;;;4.10;0.82;;;14.00;99.90;;;;;;5018194;28;20022;-70
2023/10/28 12:28:24;;;;;;;4.95;0.80;;;14.00;99.90;;;;;;5016437;28;20113;-70
2023/10/28 12:30:51;;;;;;;6.20;1.23;;;14.00;99.90;;;;;;5018172;28;20097;-70
2023/10/28 12:33:16;;;;;;;6.32;0.80;;;14.00;99.90;;;;;;5018139;28;20100;-70
2023/10/28 12:35:42;;;;;;;4.53;1.10;;;14.00;99.90;;;;;;5018373;28;20085;-70
2023/10/28 12:38:08;;;;;;;9.68;1.10;;;14.00;99.90;;;;;;5017948;28;20026;-70
2023/10/28 12:40:33;;;;;;;10.88;1.10;;;14.10;99.90;;;;;;5018201;28;20065;-70
2023/10/28 12:42:59;;;;;;;5.45;1.33;;;14.10;99.90;;;;;;5017952;28;20022;-70